sensor_id;sensor_type;location;lat;lon;timestamp;temperature;humidity
418;DHT22;49;48.530;9.200;2023-09-19T00:02:21;23.00;99.90
418;DHT22;49;48.530;9.200;2023-09-19T00:04:47;23.00;99.90
418;DHT22;49;48.530;9.200;2023-09-19T00:07:15;23.20;99.90
418;DHT22;49;48.530;9.200;2023-09-19T00:09:43;22.90;99.90
418;DHT22;49;48.530;9.200;2023-09-19T00:12:10;23.10;99.90
418;DHT22;49;48.530;9.200;2023-09-19T00:14:38;23.10;99.90
418;DHT22;49;48.530;9.200;2023-09-19T00:17:07;23.20;99.90
418;DHT22;49;48.530;9.200;2023-09-19T00:19:35;23.10;99.90
418;DHT22;49;48.530;9.200;2023-09-19T00:22:02;23.20;99.90
418;DHT22;49;48.530;9.200;2023-09-19T00:24:29;23.40;99.90
418;DHT22;49;48.530;9.200;2023-09-19T00:26:56;23.30;99.90
418;DHT22;49;48.530;9.200;2023-09-19T00:29:25;23.10;99.90
418;DHT22;49;48.530;9.200;2023-09-19T00:31:54;23.20;99.90
418;DHT22;49;48.530;9.200;2023-09-19T00:34:23;23.30;99.90
418;DHT22;49;48.530;9.200;2023-09-19T00:36:51;23.50;99.30
418;DHT22;49;48.530;9.200;2023-09-19T00:39:19;23.20;96.70
418;DHT22;49;48.530;9.200;2023-09-19T00:41:47;22.80;99.90
418;DHT22;49;48.530;9.200;2023-09-19T00:44:14;23.00;99.90
418;DHT22;49;48.530;9.200;2023-09-19T00:46:43;22.70;99.90
418;DHT22;49;48.530;9.200;2023-09-19T00:49:13;22.50;99.90
418;DHT22;49;48.530;9.200;2023-09-19T00:51:42;22.80;99.90
418;DHT22;49;48.530;9.200;2023-09-19T00:54:13;22.60;99.90
418;DHT22;49;48.530;9.200;2023-09-19T00:56:44;22.30;99.90
418;DHT22;49;48.530;9.200;2023-09-19T00:59:11;22.20;99.90
418;DHT22;49;48.530;9.200;2023-09-19T01:01:39;22.20;99.90
418;DHT22;49;48.530;9.200;2023-09-19T01:04:06;22.40;99.90
418;DHT22;49;48.530;9.200;2023-09-19T01:06:33;22.60;99.90
418;DHT22;49;48.530;9.200;2023-09-19T01:09:01;22.60;99.40
418;DHT22;49;48.530;9.200;2023-09-19T01:11:35;22.70;99.90
418;DHT22;49;48.530;9.200;2023-09-19T01:14:15;22.40;99.90
418;DHT22;49;48.530;9.200;2023-09-19T01:16:53;22.30;99.90
418;DHT22;49;48.530;9.200;2023-09-19T01:19:39;21.90;99.90
418;DHT22;49;48.530;9.200;2023-09-19T01:22:16;21.70;99.90
418;DHT22;49;48.530;9.200;2023-09-19T01:25:16;21.80;99.90
418;DHT22;49;48.530;9.200;2023-09-19T01:28:06;21.60;99.90
418;DHT22;49;48.530;9.200;2023-09-19T01:30:43;21.90;99.90
418;DHT22;49;48.530;9.200;2023-09-19T01:33:11;22.20;99.90
418;DHT22;49;48.530;9.200;2023-09-19T01:35:38;22.60;99.90
418;DHT22;49;48.530;9.200;2023-09-19T01:38:05;22.50;99.90
418;DHT22;49;48.530;9.200;2023-09-19T01:40:39;22.30;99.90
418;DHT22;49;48.530;9.200;2023-09-19T01:43:11;21.90;99.90
418;DHT22;49;48.530;9.200;2023-09-19T01:45:46;21.90;99.90
418;DHT22;49;48.530;9.200;2023-09-19T01:48:22;21.80;99.90
418;DHT22;49;48.530;9.200;2023-09-19T01:50:56;21.70;99.90
418;DHT22;49;48.530;9.200;2023-09-19T01:53:27;21.70;99.90
418;DHT22;49;48.530;9.200;2023-09-19T01:55:58;21.50;99.90
418;DHT22;49;48.530;9.200;2023-09-19T01:58:32;21.50;99.90
418;DHT22;49;48.530;9.200;2023-09-19T02:01:02;21.80;99.90
418;DHT22;49;48.530;9.200;2023-09-19T02:03:31;21.80;99.90
418;DHT22;49;48.530;9.200;2023-09-19T02:06:00;21.80;99.90
418;DHT22;49;48.530;9.200;2023-09-19T02:08:27;21.60;99.90
418;DHT22;49;48.530;9.200;2023-09-19T02:10:56;21.60;99.90
418;DHT22;49;48.530;9.200;2023-09-19T02:13:23;21.60;99.90
418;DHT22;49;48.530;9.200;2023-09-19T02:15:52;22.00;99.90
418;DHT22;49;48.530;9.200;2023-09-19T02:18:20;22.50;99.90
418;DHT22;49;48.530;9.200;2023-09-19T02:20:47;22.90;95.20
418;DHT22;49;48.530;9.200;2023-09-19T02:23:16;22.80;92.20
418;DHT22;49;48.530;9.200;2023-09-19T02:25:51;22.90;93.40
418;DHT22;49;48.530;9.200;2023-09-19T02:28:19;22.90;91.90
418;DHT22;49;48.530;9.200;2023-09-19T02:30:47;23.00;90.10
418;DHT22;49;48.530;9.200;2023-09-19T02:33:15;23.00;88.00
418;DHT22;49;48.530;9.200;2023-09-19T02:35:44;23.00;88.70
418;DHT22;49;48.530;9.200;2023-09-19T02:38:11;23.10;87.30
418;DHT22;49;48.530;9.200;2023-09-19T02:40:38;23.20;80.90
418;DHT22;49;48.530;9.200;2023-09-19T02:43:05;23.10;79.80
418;DHT22;49;48.530;9.200;2023-09-19T02:45:33;23.00;88.70
418;DHT22;49;48.530;9.200;2023-09-19T02:48:00;23.00;88.70
418;DHT22;49;48.530;9.200;2023-09-19T02:50:29;23.20;87.00
418;DHT22;49;48.530;9.200;2023-09-19T02:52:58;23.20;88.50
418;DHT22;49;48.530;9.200;2023-09-19T02:55:25;23.20;87.10
418;DHT22;49;48.530;9.200;2023-09-19T02:57:54;23.30;84.30
418;DHT22;49;48.530;9.200;2023-09-19T03:00:21;23.40;85.60
418;DHT22;49;48.530;9.200;2023-09-19T03:02:49;23.50;82.60
418;DHT22;49;48.530;9.200;2023-09-19T03:05:17;23.50;81.50
418;DHT22;49;48.530;9.200;2023-09-19T03:07:44;23.50;79.80
418;DHT22;49;48.530;9.200;2023-09-19T03:10:17;23.60;80.20
418;DHT22;49;48.530;9.200;2023-09-19T03:12:44;23.60;77.50
418;DHT22;49;48.530;9.200;2023-09-19T03:15:12;23.70;77.80
418;DHT22;49;48.530;9.200;2023-09-19T03:17:43;23.60;74.40
418;DHT22;49;48.530;9.200;2023-09-19T03:20:10;23.60;72.80
418;DHT22;49;48.530;9.200;2023-09-19T03:22:38;23.50;71.20
418;DHT22;49;48.530;9.200;2023-09-19T03:25:06;23.40;73.30
418;DHT22;49;48.530;9.200;2023-09-19T03:27:35;23.40;75.70
418;DHT22;49;48.530;9.200;2023-09-19T03:30:02;23.40;75.70
418;DHT22;49;48.530;9.200;2023-09-19T03:32:33;23.40;76.90
418;DHT22;49;48.530;9.200;2023-09-19T03:35:01;23.40;71.90
418;DHT22;49;48.530;9.200;2023-09-19T03:37:30;23.00;75.40
418;DHT22;49;48.530;9.200;2023-09-19T03:39:57;22.80;78.60
418;DHT22;49;48.530;9.200;2023-09-19T03:42:24;22.80;83.80
418;DHT22;49;48.530;9.200;2023-09-19T03:44:55;22.80;80.80
418;DHT22;49;48.530;9.200;2023-09-19T03:47:22;22.90;78.20
418;DHT22;49;48.530;9.200;2023-09-19T03:49:49;23.10;79.00
418;DHT22;49;48.530;9.200;2023-09-19T03:52:17;23.40;79.70
418;DHT22;49;48.530;9.200;2023-09-19T03:54:44;23.40;70.70
418;DHT22;49;48.530;9.200;2023-09-19T03:57:11;23.20;76.50
418;DHT22;49;48.530;9.200;2023-09-19T03:59:41;23.10;76.80
418;DHT22;49;48.530;9.200;2023-09-19T04:02:09;22.60;83.80
418;DHT22;49;48.530;9.200;2023-09-19T04:04:47;22.40;92.30
418;DHT22;49;48.530;9.200;2023-09-19T04:07:14;22.30;91.90
418;DHT22;49;48.530;9.200;2023-09-19T04:09:41;22.30;92.40
418;DHT22;49;48.530;9.200;2023-09-19T04:12:08;22.10;92.90
418;DHT22;49;48.530;9.200;2023-09-19T04:14:35;21.30;99.90
418;DHT22;49;48.530;9.200;2023-09-19T04:17:02;21.40;99.90
418;DHT22;49;48.530;9.200;2023-09-19T04:19:30;21.50;99.90
418;DHT22;49;48.530;9.200;2023-09-19T04:21:57;21.80;99.90
418;DHT22;49;48.530;9.200;2023-09-19T04:24:23;22.20;97.70
418;DHT22;49;48.530;9.200;2023-09-19T04:26:50;22.40;92.40
418;DHT22;49;48.530;9.200;2023-09-19T04:29:18;22.20;96.10
418;DHT22;49;48.530;9.200;2023-09-19T04:31:45;22.40;93.40
418;DHT22;49;48.530;9.200;2023-09-19T04:34:12;22.50;91.30
418;DHT22;49;48.530;9.200;2023-09-19T04:36:44;22.60;88.40
418;DHT22;49;48.530;9.200;2023-09-19T04:39:11;22.50;90.20
418;DHT22;49;48.530;9.200;2023-09-19T04:41:38;22.60;89.50
418;DHT22;49;48.530;9.200;2023-09-19T04:44:07;22.70;89.60
418;DHT22;49;48.530;9.200;2023-09-19T04:46:34;22.90;87.00
418;DHT22;49;48.530;9.200;2023-09-19T04:49:01;23.00;78.30
418;DHT22;49;48.530;9.200;2023-09-19T04:51:28;23.00;76.90
418;DHT22;49;48.530;9.200;2023-09-19T04:54:01;23.00;83.00
418;DHT22;49;48.530;9.200;2023-09-19T04:56:28;23.20;82.60
418;DHT22;49;48.530;9.200;2023-09-19T04:58:55;23.20;80.30
418;DHT22;49;48.530;9.200;2023-09-19T05:01:23;23.20;77.20
418;DHT22;49;48.530;9.200;2023-09-19T05:03:50;23.10;75.20
418;DHT22;49;48.530;9.200;2023-09-19T05:06:18;23.10;76.30
418;DHT22;49;48.530;9.200;2023-09-19T05:08:46;23.20;80.00
418;DHT22;49;48.530;9.200;2023-09-19T05:11:17;23.20;73.20
418;DHT22;49;48.530;9.200;2023-09-19T05:13:44;23.20;77.50
418;DHT22;49;48.530;9.200;2023-09-19T05:16:10;23.30;73.80
418;DHT22;49;48.530;9.200;2023-09-19T05:18:37;23.10;75.40
418;DHT22;49;48.530;9.200;2023-09-19T05:21:05;23.00;75.30
418;DHT22;49;48.530;9.200;2023-09-19T05:23:33;23.00;74.00
418;DHT22;49;48.530;9.200;2023-09-19T05:25:59;22.80;77.00
418;DHT22;49;48.530;9.200;2023-09-19T05:28:28;23.00;80.90
418;DHT22;49;48.530;9.200;2023-09-19T05:30:55;23.10;77.00
418;DHT22;49;48.530;9.200;2023-09-19T05:33:24;23.40;75.70
418;DHT22;49;48.530;9.200;2023-09-19T05:35:52;23.60;73.00
418;DHT22;49;48.530;9.200;2023-09-19T05:38:19;23.90;70.20
418;DHT22;49;48.530;9.200;2023-09-19T05:40:46;24.10;65.20
418;DHT22;49;48.530;9.200;2023-09-19T05:43:13;24.20;63.60
418;DHT22;49;48.530;9.200;2023-09-19T05:45:42;24.20;62.80
418;DHT22;49;48.530;9.200;2023-09-19T05:48:09;24.30;62.60
418;DHT22;49;48.530;9.200;2023-09-19T05:50:37;24.30;60.90
418;DHT22;49;48.530;9.200;2023-09-19T05:53:04;24.40;62.70
418;DHT22;49;48.530;9.200;2023-09-19T05:55:31;24.70;64.30
418;DHT22;49;48.530;9.200;2023-09-19T05:57:58;24.90;55.50
418;DHT22;49;48.530;9.200;2023-09-19T06:00:25;25.00;51.40
418;DHT22;49;48.530;9.200;2023-09-19T06:02:55;24.80;52.30
418;DHT22;49;48.530;9.200;2023-09-19T06:05:23;24.60;53.10
418;DHT22;49;48.530;9.200;2023-09-19T06:07:52;24.30;54.10
418;DHT22;49;48.530;9.200;2023-09-19T06:10:19;24.10;60.80
418;DHT22;49;48.530;9.200;2023-09-19T06:12:48;24.10;59.50
418;DHT22;49;48.530;9.200;2023-09-19T06:15:16;24.00;60.20
418;DHT22;49;48.530;9.200;2023-09-19T06:17:47;23.90;62.20
418;DHT22;49;48.530;9.200;2023-09-19T06:20:15;24.00;60.20
418;DHT22;49;48.530;9.200;2023-09-19T06:22:44;23.80;61.40
418;DHT22;49;48.530;9.200;2023-09-19T06:25:13;23.60;59.90
418;DHT22;49;48.530;9.200;2023-09-19T06:27:45;23.20;67.00
418;DHT22;49;48.530;9.200;2023-09-19T06:30:12;22.70;77.60
418;DHT22;49;48.530;9.200;2023-09-19T06:32:39;22.20;85.20
418;DHT22;49;48.530;9.200;2023-09-19T06:35:09;22.50;86.70
418;DHT22;49;48.530;9.200;2023-09-19T06:37:38;22.50;84.70
418;DHT22;49;48.530;9.200;2023-09-19T06:40:07;22.50;86.60
418;DHT22;49;48.530;9.200;2023-09-19T06:42:39;22.90;82.30
418;DHT22;49;48.530;9.200;2023-09-19T06:45:07;23.40;77.10
418;DHT22;49;48.530;9.200;2023-09-19T06:47:34;23.10;76.40
418;DHT22;49;48.530;9.200;2023-09-19T06:50:02;23.60;74.80
418;DHT22;49;48.530;9.200;2023-09-19T06:52:30;23.90;68.90
418;DHT22;49;48.530;9.200;2023-09-19T06:54:59;24.20;62.80
418;DHT22;49;48.530;9.200;2023-09-19T06:57:28;24.40;62.20
418;DHT22;49;48.530;9.200;2023-09-19T06:59:56;24.30;59.00
418;DHT22;49;48.530;9.200;2023-09-19T07:02:23;24.40;61.00
418;DHT22;49;48.530;9.200;2023-09-19T07:04:50;24.30;61.50
418;DHT22;49;48.530;9.200;2023-09-19T07:07:17;24.40;62.70
418;DHT22;49;48.530;9.200;2023-09-19T07:09:43;23.90;63.20
418;DHT22;49;48.530;9.200;2023-09-19T07:12:12;23.70;70.00
418;DHT22;49;48.530;9.200;2023-09-19T07:14:39;23.70;67.30
418;DHT22;49;48.530;9.200;2023-09-19T07:17:06;23.70;68.00
418;DHT22;49;48.530;9.200;2023-09-19T07:19:34;24.30;68.80
418;DHT22;49;48.530;9.200;2023-09-19T07:22:01;25.00;61.20
418;DHT22;49;48.530;9.200;2023-09-19T07:24:28;25.50;53.30
418;DHT22;49;48.530;9.200;2023-09-19T07:26:55;26.20;50.40
418;DHT22;49;48.530;9.200;2023-09-19T07:29:23;26.90;42.50
418;DHT22;49;48.530;9.200;2023-09-19T07:31:51;27.30;37.30
418;DHT22;49;48.530;9.200;2023-09-19T07:34:18;27.80;33.70
418;DHT22;49;48.530;9.200;2023-09-19T07:36:46;28.40;31.40
418;DHT22;49;48.530;9.200;2023-09-19T07:39:13;28.40;28.40
418;DHT22;49;48.530;9.200;2023-09-19T07:41:40;28.10;29.20
418;DHT22;49;48.530;9.200;2023-09-19T07:44:07;28.10;29.20
418;DHT22;49;48.530;9.200;2023-09-19T07:46:35;28.40;29.30
418;DHT22;49;48.530;9.200;2023-09-19T07:49:02;29.00;27.90
418;DHT22;49;48.530;9.200;2023-09-19T07:51:30;29.30;26.30
418;DHT22;49;48.530;9.200;2023-09-19T07:53:58;29.60;26.00
418;DHT22;49;48.530;9.200;2023-09-19T07:56:25;29.40;22.80
418;DHT22;49;48.530;9.200;2023-09-19T07:58:53;28.50;23.60
418;DHT22;49;48.530;9.200;2023-09-19T08:01:20;27.00;27.30
418;DHT22;49;48.530;9.200;2023-09-19T08:03:50;25.70;35.60
418;DHT22;49;48.530;9.200;2023-09-19T08:06:17;25.40;35.50
418;DHT22;49;48.530;9.200;2023-09-19T08:08:44;25.60;36.60
418;DHT22;49;48.530;9.200;2023-09-19T08:11:11;25.30;34.50
418;DHT22;49;48.530;9.200;2023-09-19T08:13:38;25.20;39.50
418;DHT22;49;48.530;9.200;2023-09-19T08:16:08;24.80;36.20
418;DHT22;49;48.530;9.200;2023-09-19T08:18:35;24.40;42.90
418;DHT22;49;48.530;9.200;2023-09-19T08:21:04;24.60;39.10
418;DHT22;49;48.530;9.200;2023-09-19T08:23:32;24.70;39.10
418;DHT22;49;48.530;9.200;2023-09-19T08:25:58;24.90;37.30
418;DHT22;49;48.530;9.200;2023-09-19T08:28:28;24.90;34.20
418;DHT22;49;48.530;9.200;2023-09-19T08:30:55;24.90;38.20
418;DHT22;49;48.530;9.200;2023-09-19T08:33:23;25.20;33.10
418;DHT22;49;48.530;9.200;2023-09-19T08:35:50;25.30;31.30
418;DHT22;49;48.530;9.200;2023-09-19T08:38:18;25.60;32.50
418;DHT22;49;48.530;9.200;2023-09-19T08:40:45;25.50;33.60
418;DHT22;49;48.530;9.200;2023-09-19T08:43:12;24.70;34.00
418;DHT22;49;48.530;9.200;2023-09-19T08:45:40;23.80;39.10
418;DHT22;49;48.530;9.200;2023-09-19T08:48:22;23.60;43.50
418;DHT22;49;48.530;9.200;2023-09-19T08:50:54;23.40;43.10
418;DHT22;49;48.530;9.200;2023-09-19T08:53:27;23.60;47.70
418;DHT22;49;48.530;9.200;2023-09-19T08:55:55;24.50;42.80
418;DHT22;49;48.530;9.200;2023-09-19T08:58:26;24.80;35.20
418;DHT22;49;48.530;9.200;2023-09-19T09:00:55;24.30;39.70
418;DHT22;49;48.530;9.200;2023-09-19T09:03:23;24.60;34.80
418;DHT22;49;48.530;9.200;2023-09-19T09:05:50;25.20;29.60
418;DHT22;49;48.530;9.200;2023-09-19T09:08:19;25.20;29.00
418;DHT22;49;48.530;9.200;2023-09-19T09:10:49;24.80;34.10
418;DHT22;49;48.530;9.200;2023-09-19T09:13:17;24.60;34.00
418;DHT22;49;48.530;9.200;2023-09-19T09:15:44;25.20;29.10
418;DHT22;49;48.530;9.200;2023-09-19T09:18:11;25.60;27.90
418;DHT22;49;48.530;9.200;2023-09-19T09:20:38;25.50;26.20
418;DHT22;49;48.530;9.200;2023-09-19T09:23:05;24.70;29.00
418;DHT22;49;48.530;9.200;2023-09-19T09:25:50;24.60;31.90
418;DHT22;49;48.530;9.200;2023-09-19T09:28:21;24.90;30.30
418;DHT22;49;48.530;9.200;2023-09-19T09:30:49;24.60;27.20
418;DHT22;49;48.530;9.200;2023-09-19T09:33:16;24.20;27.70
418;DHT22;49;48.530;9.200;2023-09-19T09:35:51;24.40;29.00
418;DHT22;49;48.530;9.200;2023-09-19T09:38:23;24.90;27.50
418;DHT22;49;48.530;9.200;2023-09-19T09:40:56;24.80;24.40
418;DHT22;49;48.530;9.200;2023-09-19T09:43:32;24.90;26.70
418;DHT22;49;48.530;9.200;2023-09-19T09:46:13;25.20;26.10
418;DHT22;49;48.530;9.200;2023-09-19T09:48:58;25.20;20.80
418;DHT22;49;48.530;9.200;2023-09-19T09:52:02;23.80;26.10
418;DHT22;49;48.530;9.200;2023-09-19T09:54:32;24.10;26.90
418;DHT22;49;48.530;9.200;2023-09-19T09:57:05;24.10;28.70
418;DHT22;49;48.530;9.200;2023-09-19T09:59:49;24.40;23.20
418;DHT22;49;48.530;9.200;2023-09-19T10:02:17;24.40;24.80
418;DHT22;49;48.530;9.200;2023-09-19T10:04:50;24.00;26.80
418;DHT22;49;48.530;9.200;2023-09-19T10:07:34;24.10;25.90
418;DHT22;49;48.530;9.200;2023-09-19T10:10:07;24.70;24.70
418;DHT22;49;48.530;9.200;2023-09-19T10:12:47;24.70;23.40
418;DHT22;49;48.530;9.200;2023-09-19T10:15:16;24.80;22.80
418;DHT22;49;48.530;9.200;2023-09-19T10:17:46;25.00;26.90
418;DHT22;49;48.530;9.200;2023-09-19T10:20:15;25.30;19.40
418;DHT22;49;48.530;9.200;2023-09-19T10:23:01;25.60;21.60
418;DHT22;49;48.530;9.200;2023-09-19T10:25:37;24.80;27.80
418;DHT22;49;48.530;9.200;2023-09-19T10:28:07;24.40;24.40
418;DHT22;49;48.530;9.200;2023-09-19T10:30:37;23.90;26.10
418;DHT22;49;48.530;9.200;2023-09-19T10:33:08;24.40;27.10
418;DHT22;49;48.530;9.200;2023-09-19T10:35:38;25.30;23.50
418;DHT22;49;48.530;9.200;2023-09-19T10:38:06;25.60;21.80
418;DHT22;49;48.530;9.200;2023-09-19T10:40:35;25.20;21.60
418;DHT22;49;48.530;9.200;2023-09-19T10:43:07;25.40;22.80
418;DHT22;49;48.530;9.200;2023-09-19T10:45:39;25.60;22.40
418;DHT22;49;48.530;9.200;2023-09-19T10:48:07;25.30;20.90
418;DHT22;49;48.530;9.200;2023-09-19T10:50:41;25.00;20.70
418;DHT22;49;48.530;9.200;2023-09-19T10:53:12;24.50;21.30
418;DHT22;49;48.530;9.200;2023-09-19T10:55:41;24.30;22.80
418;DHT22;49;48.530;9.200;2023-09-19T10:58:25;24.40;22.20
418;DHT22;49;48.530;9.200;2023-09-19T11:00:55;25.60;21.80
418;DHT22;49;48.530;9.200;2023-09-19T11:03:23;26.70;18.20
418;DHT22;49;48.530;9.200;2023-09-19T11:06:04;26.80;17.00
418;DHT22;49;48.530;9.200;2023-09-19T11:08:55;27.10;17.10
418;DHT22;49;48.530;9.200;2023-09-19T11:11:45;27.20;15.40
418;DHT22;49;48.530;9.200;2023-09-19T11:14:41;27.20;15.50
418;DHT22;49;48.530;9.200;2023-09-19T11:17:41;26.80;18.90
418;DHT22;49;48.530;9.200;2023-09-19T11:20:23;26.80;16.30
418;DHT22;49;48.530;9.200;2023-09-19T11:23:20;26.90;14.40
418;DHT22;49;48.530;9.200;2023-09-19T11:25:52;26.70;16.60
418;DHT22;49;48.530;9.200;2023-09-19T11:28:35;26.00;14.60
418;DHT22;49;48.530;9.200;2023-09-19T11:31:42;25.40;19.80
418;DHT22;49;48.530;9.200;2023-09-19T11:34:44;25.50;17.20
418;DHT22;49;48.530;9.200;2023-09-19T11:40:33;25.60;15.70
418;DHT22;49;48.530;9.200;2023-09-19T11:43:30;25.30;18.10
418;DHT22;49;48.530;9.200;2023-09-19T11:46:08;25.00;20.70
418;DHT22;49;48.530;9.200;2023-09-19T11:48:38;25.50;20.30
418;DHT22;49;48.530;9.200;2023-09-19T11:51:19;25.30;16.70
418;DHT22;49;48.530;9.200;2023-09-19T11:53:50;25.40;17.40
418;DHT22;49;48.530;9.200;2023-09-19T11:56:18;25.80;20.20
418;DHT22;49;48.530;9.200;2023-09-19T11:58:46;26.00;18.30
418;DHT22;49;48.530;9.200;2023-09-19T12:01:15;26.40;19.90
418;DHT22;49;48.530;9.200;2023-09-19T12:03:50;26.80;17.40
418;DHT22;49;48.530;9.200;2023-09-19T12:06:19;26.40;15.00
418;DHT22;49;48.530;9.200;2023-09-19T12:08:50;26.40;16.10
418;DHT22;49;48.530;9.200;2023-09-19T12:11:20;25.70;15.70
418;DHT22;49;48.530;9.200;2023-09-19T12:13:48;25.50;19.00
418;DHT22;49;48.530;9.200;2023-09-19T12:16:16;25.70;17.60
418;DHT22;49;48.530;9.200;2023-09-19T12:18:44;26.00;15.30
418;DHT22;49;48.530;9.200;2023-09-19T12:21:24;26.40;17.70
418;DHT22;49;48.530;9.200;2023-09-19T12:23:59;25.90;16.90
418;DHT22;49;48.530;9.200;2023-09-19T12:26:27;25.20;16.50
418;DHT22;49;48.530;9.200;2023-09-19T12:28:55;25.60;17.10
418;DHT22;49;48.530;9.200;2023-09-19T12:31:23;26.00;15.10
418;DHT22;49;48.530;9.200;2023-09-19T12:33:53;26.30;15.90
418;DHT22;49;48.530;9.200;2023-09-19T12:36:23;25.70;15.50
418;DHT22;49;48.530;9.200;2023-09-19T12:38:55;25.60;15.00
418;DHT22;49;48.530;9.200;2023-09-19T12:41:24;25.50;15.60
418;DHT22;49;48.530;9.200;2023-09-19T12:43:52;25.30;15.40
418;DHT22;49;48.530;9.200;2023-09-19T12:46:20;25.30;15.50
418;DHT22;49;48.530;9.200;2023-09-19T12:49:16;25.30;20.80
418;DHT22;49;48.530;9.200;2023-09-19T12:51:45;26.00;15.30
418;DHT22;49;48.530;9.200;2023-09-19T12:54:13;26.30;13.80
418;DHT22;49;48.530;9.200;2023-09-19T12:56:42;26.30;16.10
418;DHT22;49;48.530;9.200;2023-09-19T12:59:11;26.00;13.50
418;DHT22;49;48.530;9.200;2023-09-19T13:01:39;25.60;13.20
418;DHT22;49;48.530;9.200;2023-09-19T13:04:11;25.70;13.20
418;DHT22;49;48.530;9.200;2023-09-19T13:06:40;25.50;18.60
418;DHT22;49;48.530;9.200;2023-09-19T13:09:11;25.90;11.90
418;DHT22;49;48.530;9.200;2023-09-19T13:11:40;25.30;10.10
418;DHT22;49;48.530;9.200;2023-09-19T13:14:17;25.10;12.30
418;DHT22;49;48.530;9.200;2023-09-19T13:16:58;25.00;21.00
418;DHT22;49;48.530;9.200;2023-09-19T13:19:44;25.40;13.70
418;DHT22;49;48.530;9.200;2023-09-19T13:22:36;25.80;15.00
418;DHT22;49;48.530;9.200;2023-09-19T13:25:08;26.00;18.10
418;DHT22;49;48.530;9.200;2023-09-19T13:27:40;26.20;16.00
418;DHT22;49;48.530;9.200;2023-09-19T13:30:08;26.20;14.00
418;DHT22;49;48.530;9.200;2023-09-19T13:32:35;26.00;15.20
418;DHT22;49;48.530;9.200;2023-09-19T13:35:03;26.30;14.90
418;DHT22;49;48.530;9.200;2023-09-19T13:37:33;26.30;14.40
418;DHT22;49;48.530;9.200;2023-09-19T13:40:01;26.30;18.60
418;DHT22;49;48.530;9.200;2023-09-19T13:42:32;26.40;14.60
418;DHT22;49;48.530;9.200;2023-09-19T13:44:58;26.80;13.00
418;DHT22;49;48.530;9.200;2023-09-19T13:47:26;26.30;12.60
418;DHT22;49;48.530;9.200;2023-09-19T13:49:52;26.40;16.10
418;DHT22;49;48.530;9.200;2023-09-19T13:52:19;26.80;15.10
418;DHT22;49;48.530;9.200;2023-09-19T13:54:48;27.00;11.80
418;DHT22;49;48.530;9.200;2023-09-19T13:57:15;26.60;13.50
418;DHT22;49;48.530;9.200;2023-09-19T13:59:44;26.50;12.00
418;DHT22;49;48.530;9.200;2023-09-19T14:02:11;26.20;16.00
418;DHT22;49;48.530;9.200;2023-09-19T14:04:39;26.10;13.00
418;DHT22;49;48.530;9.200;2023-09-19T14:07:06;26.20;13.50
418;DHT22;49;48.530;9.200;2023-09-19T14:09:34;26.20;16.00
418;DHT22;49;48.530;9.200;2023-09-19T14:12:01;26.20;16.50
418;DHT22;49;48.530;9.200;2023-09-19T14:14:27;26.10;15.40
418;DHT22;49;48.530;9.200;2023-09-19T14:16:56;26.10;15.50
418;DHT22;49;48.530;9.200;2023-09-19T14:19:26;25.70;15.70
418;DHT22;49;48.530;9.200;2023-09-19T14:21:53;25.70;15.80
418;DHT22;49;48.530;9.200;2023-09-19T14:24:21;25.80;15.80
418;DHT22;49;48.530;9.200;2023-09-19T14:26:48;26.10;16.30
418;DHT22;49;48.530;9.200;2023-09-19T14:29:16;25.90;15.10
418;DHT22;49;48.530;9.200;2023-09-19T14:31:43;25.80;15.40
418;DHT22;49;48.530;9.200;2023-09-19T14:34:11;25.30;12.80
418;DHT22;49;48.530;9.200;2023-09-19T14:36:39;25.60;12.60
418;DHT22;49;48.530;9.200;2023-09-19T14:39:06;25.70;12.10
418;DHT22;49;48.530;9.200;2023-09-19T14:41:34;25.60;12.90
418;DHT22;49;48.530;9.200;2023-09-19T14:44:02;25.90;11.60
418;DHT22;49;48.530;9.200;2023-09-19T14:46:30;25.80;12.00
418;DHT22;49;48.530;9.200;2023-09-19T14:48:57;26.10;12.30
418;DHT22;49;48.530;9.200;2023-09-19T14:51:28;26.00;14.20
418;DHT22;49;48.530;9.200;2023-09-19T14:53:55;26.10;14.00
418;DHT22;49;48.530;9.200;2023-09-19T14:56:22;26.80;13.10
418;DHT22;49;48.530;9.200;2023-09-19T14:58:51;27.20;13.30
418;DHT22;49;48.530;9.200;2023-09-19T15:01:17;27.30;11.20
418;DHT22;49;48.530;9.200;2023-09-19T15:03:44;27.30;11.90
418;DHT22;49;48.530;9.200;2023-09-19T15:06:12;27.30;8.70
418;DHT22;49;48.530;9.200;2023-09-19T15:08:41;26.80;10.00
418;DHT22;49;48.530;9.200;2023-09-19T15:11:11;27.00;9.90
418;DHT22;49;48.530;9.200;2023-09-19T15:13:38;27.20;16.50
418;DHT22;49;48.530;9.200;2023-09-19T15:16:07;27.00;9.50
418;DHT22;49;48.530;9.200;2023-09-19T15:18:35;26.70;13.90
418;DHT22;49;48.530;9.200;2023-09-19T15:21:04;26.90;9.40
418;DHT22;49;48.530;9.200;2023-09-19T15:23:32;27.20;12.30
418;DHT22;49;48.530;9.200;2023-09-19T15:26:01;27.00;11.00
418;DHT22;49;48.530;9.200;2023-09-19T15:28:28;26.50;8.90
418;DHT22;49;48.530;9.200;2023-09-19T15:30:59;26.50;11.60
418;DHT22;49;48.530;9.200;2023-09-19T15:33:26;26.00;9.80
418;DHT22;49;48.530;9.200;2023-09-19T15:36:01;26.00;11.50
418;DHT22;49;48.530;9.200;2023-09-19T15:38:29;25.90;11.70
418;DHT22;49;48.530;9.200;2023-09-19T15:40:57;26.50;12.20
418;DHT22;49;48.530;9.200;2023-09-19T15:43:25;26.90;10.10
418;DHT22;49;48.530;9.200;2023-09-19T15:45:52;27.00;9.90
418;DHT22;49;48.530;9.200;2023-09-19T15:48:19;27.30;11.40
418;DHT22;49;48.530;9.200;2023-09-19T15:50:47;27.10;10.50
418;DHT22;49;48.530;9.200;2023-09-19T15:53:14;27.20;9.20
418;DHT22;49;48.530;9.200;2023-09-19T15:55:42;27.00;8.60
418;DHT22;49;48.530;9.200;2023-09-19T15:58:10;27.00;12.30
418;DHT22;49;48.530;9.200;2023-09-19T16:00:41;27.00;8.60
418;DHT22;49;48.530;9.200;2023-09-19T16:03:07;26.60;9.40
418;DHT22;49;48.530;9.200;2023-09-19T16:05:36;26.50;8.60
418;DHT22;49;48.530;9.200;2023-09-19T16:08:05;26.30;11.50
418;DHT22;49;48.530;9.200;2023-09-19T16:10:34;26.40;9.80
418;DHT22;49;48.530;9.200;2023-09-19T16:13:04;26.60;13.50
418;DHT22;49;48.530;9.200;2023-09-19T16:15:31;26.50;16.90
418;DHT22;49;48.530;9.200;2023-09-19T16:18:00;26.50;11.00
418;DHT22;49;48.530;9.200;2023-09-19T16:20:28;26.50;9.00
418;DHT22;49;48.530;9.200;2023-09-19T16:22:58;26.50;16.10
418;DHT22;49;48.530;9.200;2023-09-19T16:25:25;26.70;16.50
418;DHT22;49;48.530;9.200;2023-09-19T16:27:52;26.80;13.90
418;DHT22;49;48.530;9.200;2023-09-19T16:30:22;26.70;11.20
418;DHT22;49;48.530;9.200;2023-09-19T16:32:49;26.60;13.60
418;DHT22;49;48.530;9.200;2023-09-19T16:35:17;26.70;13.00
418;DHT22;49;48.530;9.200;2023-09-19T16:37:44;26.80;8.60
418;DHT22;49;48.530;9.200;2023-09-19T16:40:15;26.70;14.80
418;DHT22;49;48.530;9.200;2023-09-19T16:42:42;26.30;9.70
418;DHT22;49;48.530;9.200;2023-09-19T16:45:09;26.20;9.70
418;DHT22;49;48.530;9.200;2023-09-19T16:47:37;26.00;12.60
418;DHT22;49;48.530;9.200;2023-09-19T16:50:05;26.20;16.50
418;DHT22;49;48.530;9.200;2023-09-19T16:52:34;26.40;12.90
418;DHT22;49;48.530;9.200;2023-09-19T16:55:01;26.40;17.80
418;DHT22;49;48.530;9.200;2023-09-19T16:57:28;26.50;12.60
418;DHT22;49;48.530;9.200;2023-09-19T16:59:55;26.30;10.10
418;DHT22;49;48.530;9.200;2023-09-19T17:02:22;26.30;12.00
418;DHT22;49;48.530;9.200;2023-09-19T17:04:49;26.00;11.30
418;DHT22;49;48.530;9.200;2023-09-19T17:07:16;26.10;14.30
418;DHT22;49;48.530;9.200;2023-09-19T17:09:46;25.80;10.80
418;DHT22;49;48.530;9.200;2023-09-19T17:12:13;25.70;19.70
418;DHT22;49;48.530;9.200;2023-09-19T17:14:40;25.80;20.00